Time;durP1;ratioP1;P1;durP2;ratioP2;P2;SDS_P1;SDS_P2;PMS_P1;PMS_P2;Temp;Humidity;BMP_temperature;BMP_pressure;BME280_temperature;BME280_humidity;BME280_pressure;Samples;Min_cycle;Max_cycle;Signal;HPM_P1;HPM_P2
2023/01/26 00:02:08;;;;;;;5.68;3.22;;;;;;;2.45;81.64;100960.44;4998600;28;20030;-94
2023/01/26 00:04:34;;;;;;;5.53;2.95;;;;;;;2.46;81.81;100962.94;4976937;28;20023;-92
2023/01/26 00:06:59;;;;;;;6.20;3.03;;;;;;;2.44;82.04;100962.19;4991288;28;20026;-93
2023/01/26 00:09:25;;;;;;;5.90;2.90;;;;;;;2.41;82.02;100956.38;4975707;28;20469;-92
2023/01/26 00:11:50;;;;;;;6.32;3.03;;;;;;;2.41;82.47;100948.66;4982187;28;20027;-93
2023/01/26 00:14:16;;;;;;;7.70;2.95;;;;;;;2.36;82.65;100948.09;4992096;28;20483;-93
2023/01/26 00:16:41;;;;;;;5.25;2.88;;;;;;;2.35;82.63;100943.88;4980865;28;20031;-92
2023/01/26 00:19:07;;;;;;;5.43;3.15;;;;;;;2.36;82.85;100950.66;4973468;28;20041;-92
2023/01/26 00:21:32;;;;;;;4.97;3.22;;;;;;;2.29;82.33;100943.28;4971629;28;20129;-92
2023/01/26 00:23:59;;;;;;;5.57;2.60;;;;;;;2.25;82.68;100949.47;4993408;28;20041;-93
2023/01/26 00:26:25;;;;;;;6.78;3.42;;;;;;;2.18;82.43;100939.59;4987471;28;20038;-92
2023/01/26 00:29:01;;;;;;;7.20;3.40;;;;;;;2.10;83.23;100950.25;4981178;28;20038;-93
2023/01/26 00:31:26;;;;;;;6.35;3.40;;;;;;;2.02;83.53;100952.38;5005830;28;20040;-93
2023/01/26 00:33:54;;;;;;;7.75;3.92;;;;;;;2.22;82.04;100947.06;4996852;28;20145;-93
2023/01/26 00:36:19;;;;;;;7.43;3.45;;;;;;;2.34;81.48;100943.03;4983004;28;20054;-93
2023/01/26 00:38:45;;;;;;;8.02;3.55;;;;;;;2.25;81.74;100940.94;4981369;28;20054;-93
2023/01/26 00:42:05;;;;;;;8.70;3.45;;;;;;;2.05;83.17;100941.97;4982933;28;20022;-92
2023/01/26 00:43:57;;;;;;;8.48;3.33;;;;;;;1.87;84.02;100928.31;4979029;28;20486;-92
2023/01/26 00:46:22;;;;;;;6.32;3.90;;;;;;;1.78;85.48;100941.63;4982609;28;20345;-93
2023/01/26 00:48:48;;;;;;;8.75;3.97;;;;;;;1.76;85.74;100940.03;4998197;28;20095;-92
2023/01/26 00:51:13;;;;;;;9.38;4.63;;;;;;;1.69;86.03;100943.81;4987354;28;20022;-92
2023/01/26 00:53:39;;;;;;;7.00;3.95;;;;;;;1.58;87.29;100941.78;4978924;28;20041;-93
2023/01/26 00:56:05;;;;;;;9.88;4.43;;;;;;;1.44;88.07;100939.88;4975629;28;20018;-93
2023/01/26 00:58:30;;;;;;;6.75;3.55;;;;;;;1.42;88.41;100940.88;4971264;28;20085;-92
2023/01/26 01:00:58;;;;;;;5.97;3.30;;;;;;;1.39;88.48;100941.88;4991729;28;20034;-92
2023/01/26 01:03:26;;;;;;;6.93;3.83;;;;;;;1.35;88.54;100953.19;4977616;28;20139;-93
2023/01/26 01:05:52;;;;;;;7.10;3.45;;;;;;;1.32;88.46;100943.06;4977994;28;20113;-92
2023/01/26 01:08:17;;;;;;;7.03;4.15;;;;;;;1.25;88.74;100945.09;4973396;28;20153;-92
2023/01/26 01:10:43;;;;;;;9.52;4.28;;;;;;;1.23;88.62;100939.19;4975153;28;20034;-93
2023/01/26 01:13:08;;;;;;;8.70;3.80;;;;;;;1.18;89.54;100945.47;4996931;28;20038;-92
2023/01/26 01:15:34;;;;;;;8.35;4.80;;;;;;;1.13;89.97;100937.16;4980743;28;20085;-92
2023/01/26 01:17:59;;;;;;;10.82;4.97;;;;;;;1.11;90.40;100946.66;4978125;28;20065;-92
2023/01/26 01:20:25;;;;;;;12.95;5.00;;;;;;;1.05;91.40;100939.22;4987298;28;20034;-93
2023/01/26 01:22:51;;;;;;;9.82;5.25;;;;;;;0.96;91.92;100943.88;4988675;28;20394;-92
2023/01/26 01:25:16;;;;;;;8.85;4.90;;;;;;;0.87;92.66;100934.09;4977805;28;20118;-93
2023/01/26 01:27:42;;;;;;;9.82;4.93;;;;;;;0.79;93.38;100931.03;4998110;28;20034;-93
2023/01/26 01:30:08;;;;;;;11.52;4.95;;;;;;;0.72;93.69;100934.78;4974183;28;20057;-94
2023/01/26 01:32:40;;;;;;;9.50;4.35;;;;;;;0.73;93.94;100933.88;4987538;28;20035;-93
2023/01/26 01:35:07;;;;;;;8.00;4.70;;;;;;;0.70;94.31;100934.03;4977397;28;20027;-94
2023/01/26 01:37:32;;;;;;;11.77;4.53;;;;;;;0.69;94.80;100937.50;4970501;28;20491;-93
2023/01/26 01:39:58;;;;;;;11.93;5.30;;;;;;;0.64;94.80;100927.44;4976354;28;20106;-93
2023/01/26 01:42:24;;;;;;;9.07;4.60;;;;;;;0.55;95.41;100927.03;4986422;28;20038;-92
2023/01/26 01:45:28;;;;;;;9.20;5.05;;;;;;;0.51;96.40;100925.50;4986878;28;20035;-93
2023/01/26 01:47:56;;;;;;;11.57;4.60;;;;;;;0.48;96.65;100928.19;4995488;28;20038;-92
2023/01/26 01:50:23;;;;;;;10.73;5.25;;;;;;;0.44;97.10;100929.25;4970571;28;20034;-93
2023/01/26 01:52:49;;;;;;;10.95;4.10;;;;;;;0.39;97.36;100919.22;4975325;28;20058;-94
2023/01/26 01:55:15;;;;;;;9.52;4.78;;;;;;;0.36;98.19;100921.91;4981415;28;20062;-93
2023/01/26 01:57:47;;;;;;;8.10;4.60;;;;;;;0.43;97.99;100923.31;4995478;28;20073;-92
2023/01/26 02:00:17;;;;;;;9.23;4.25;;;;;;;0.53;97.64;100910.88;4979268;28;20077;-93
2023/01/26 02:03:09;;;;;;;10.85;4.60;;;;;;;0.70;96.70;100907.53;4981119;28;20031;-93
2023/01/26 02:05:34;;;;;;;10.35;4.93;;;;;;;0.76;96.06;100910.66;4973828;28;20051;-92
2023/01/26 02:08:02;;;;;;;8.85;4.93;;;;;;;0.62;96.41;100910.47;4979788;28;20035;-92
2023/01/26 02:10:29;;;;;;;9.77;4.50;;;;;;;0.54;96.45;100908.25;4973659;28;20385;-93
2023/01/26 02:12:55;;;;;;;10.65;4.75;;;;;;;0.52;96.78;100899.78;4977314;28;20106;-92
2023/01/26 02:15:21;;;;;;;8.82;4.78;;;;;;;0.56;97.37;100895.34;4981594;28;20038;-92
2023/01/26 02:17:50;;;;;;;8.65;4.82;;;;;;;0.49;97.39;100896.53;4984332;28;20030;-93
2023/01/26 02:20:27;;;;;;;9.60;4.63;;;;;;;0.48;97.37;100897.44;4982405;28;20042;-94
2023/01/26 02:23:08;;;;;;;9.23;4.45;;;;;;;0.49;97.57;100891.41;4987283;28;20042;-93
2023/01/26 02:25:46;;;;;;;8.48;4.13;;;;;;;0.47;98.13;100890.66;4993271;28;20057;-92
2023/01/26 02:28:12;;;;;;;9.63;4.45;;;;;;;0.49;98.76;100891.41;4975592;28;20121;-93
2023/01/26 02:30:37;;;;;;;10.40;4.72;;;;;;;0.53;98.41;100888.63;4974099;28;20039;-92
2023/01/26 02:33:03;;;;;;;8.52;4.95;;;;;;;0.60;98.05;100889.19;4980889;28;20027;-93
2023/01/26 02:35:28;;;;;;;8.68;4.82;;;;;;;0.64;97.10;100883.84;4979355;28;20030;-93
2023/01/26 02:37:54;;;;;;;9.82;4.25;;;;;;;0.72;96.27;100875.78;4976631;28;20027;-93
2023/01/26 02:40:39;;;;;;;7.38;3.70;;;;;;;0.76;95.11;100861.94;4988859;28;20034;-93
2023/01/26 02:43:05;;;;;;;7.90;3.85;;;;;;;0.76;94.49;100859.38;4987443;28;20053;-92
2023/01/26 02:45:33;;;;;;;9.57;4.18;;;;;;;0.84;94.34;100852.13;4976798;28;20505;-92
2023/01/26 02:48:03;;;;;;;8.65;4.00;;;;;;;0.92;92.63;100844.91;4971377;28;20057;-92
2023/01/26 02:50:31;;;;;;;8.73;4.47;;;;;;;1.05;92.77;100840.00;4993870;28;20038;-93
2023/01/26 02:52:58;;;;;;;8.55;4.85;;;;;;;0.96;92.31;100841.25;4992622;28;20043;-93
2023/01/26 02:55:24;;;;;;;12.05;5.03;;;;;;;0.85;93.32;100829.88;4971906;28;20030;-92
2023/01/26 02:57:53;;;;;;;10.35;5.00;;;;;;;0.80;94.45;100832.66;4978286;28;20027;-92
2023/01/26 03:00:22;;;;;;;7.72;4.22;;;;;;;0.76;93.93;100825.19;4973468;28;20133;-93
2023/01/26 03:02:49;;;;;;;8.57;4.50;;;;;;;0.67;94.59;100818.75;4966838;28;20111;-92
2023/01/26 03:05:15;;;;;;;8.18;4.50;;;;;;;0.57;94.69;100818.34;4989130;28;20038;-92
2023/01/26 03:07:41;;;;;;;7.28;4.72;;;;;;;0.38;97.03;100817.56;4977639;28;20050;-92
2023/01/26 03:10:08;;;;;;;9.30;4.85;;;;;;;0.24;97.75;100815.66;4979375;28;20057;-92
2023/01/26 03:12:34;;;;;;;6.95;4.07;;;;;;;0.21;98.39;100810.66;4992001;28;20039;-92
2023/01/26 03:17:52;;;;;;;8.10;3.75;;;;;;;0.22;97.61;100803.81;4987155;28;20049;-93
2023/01/26 03:28:57;;;;;;;9.95;4.20;;;;;;;0.29;97.28;100788.06;5011233;28;20061;-93
2023/01/26 03:31:23;;;;;;;7.80;4.40;;;;;;;0.29;97.58;100779.56;5005824;28;20140;-94
2023/01/26 03:33:48;;;;;;;9.48;4.50;;;;;;;0.26;97.60;100777.13;5010595;28;20029;-94
2023/01/26 03:36:14;;;;;;;9.60;4.82;;;;;;;0.35;96.66;100774.16;4997217;28;20443;-93
2023/01/26 03:38:39;;;;;;;8.35;4.18;;;;;;;0.45;96.34;100774.53;5020976;28;20040;-92
2023/01/26 03:57:29;;;;;;;8.45;4.20;;;;;;;0.56;93.53;100741.50;5012591;28;20041;-93
2023/01/26 03:59:54;;;;;;;9.82;4.40;;;;;;;0.42;94.02;100741.38;4997978;28;20141;-94
2023/01/26 04:10:32;;;;;;;10.82;4.85;;;;;;;0.89;91.76;100715.94;4978891;28;20042;-93
2023/01/26 04:21:32;;;;;;;8.45;3.70;;;;;;;1.17;88.24;100708.50;4973984;28;20457;-93
2023/01/26 04:23:58;;;;;;;10.45;4.57;;;;;;;1.00;89.44;100699.09;4975926;28;20060;-92
2023/01/26 04:26:33;;;;;;;12.35;4.75;;;;;;;0.87;90.28;100692.94;4978946;28;20073;-94
2023/01/26 04:29:19;;;;;;;9.85;4.88;;;;;;;0.73;91.04;100700.50;4982898;28;20034;-92
2023/01/26 04:31:44;;;;;;;8.52;4.65;;;;;;;0.63;91.58;100699.28;5020976;28;20034;-94
2023/01/26 04:34:12;;;;;;;9.02;4.28;;;;;;;0.56;92.45;100697.91;5017897;28;20018;-92
2023/01/26 04:36:38;;;;;;;13.13;5.47;;;;;;;0.56;92.18;100691.06;5000627;28;20026;-92
2023/01/26 04:39:04;;;;;;;9.15;4.88;;;;;;;0.74;91.61;100697.03;4992750;28;20439;-93
2023/01/26 04:41:31;;;;;;;11.57;4.47;;;;;;;0.75;91.33;100685.84;4986961;28;20053;-94
2023/01/26 04:43:56;;;;;;;9.98;5.13;;;;;;;0.76;91.03;100679.00;4982569;28;20117;-93
2023/01/26 04:46:22;;;;;;;6.85;3.40;;;;;;;1.47;85.21;100677.81;4994823;28;20064;-93
2023/01/26 04:48:47;;;;;;;5.20;3.00;;;;;;;1.92;82.89;100674.50;4990712;28;20029;-93
2023/01/26 04:51:16;;;;;;;8.32;3.88;;;;;;;1.77;82.94;100675.34;4979689;28;20035;-93
2023/01/26 04:53:42;;;;;;;8.68;4.80;;;;;;;1.60;84.54;100673.69;4987840;28;20057;-92
2023/01/26 04:56:27;;;;;;;11.45;5.60;;;;;;;1.37;85.66;100676.66;4972525;28;20054;-92
2023/01/26 04:58:57;;;;;;;10.77;5.30;;;;;;;1.27;86.65;100675.50;4986684;28;20054;-94
2023/01/26 05:01:23;;;;;;;12.48;6.55;;;;;;;1.19;86.95;100675.88;4974175;28;20039;-93
2023/01/26 05:03:48;;;;;;;9.35;4.63;;;;;;;1.22;86.77;100673.16;4974499;28;20042;-92
2023/01/26 05:06:14;;;;;;;10.15;4.93;;;;;;;1.25;86.62;100682.44;4987687;28;20125;-94
2023/01/26 05:08:40;;;;;;;12.02;6.07;;;;;;;1.13;87.72;100685.63;4973005;28;20485;-93
2023/01/26 05:11:06;;;;;;;12.18;6.38;;;;;;;1.06;88.38;100691.97;4978416;28;20113;-92
2023/01/26 05:13:31;;;;;;;12.75;5.88;;;;;;;0.97;88.36;100704.38;4972264;28;20039;-94
2023/01/26 05:15:57;;;;;;;11.23;5.85;;;;;;;0.87;88.94;100705.78;4988972;28;20037;-94
2023/01/26 05:18:22;;;;;;;8.70;5.13;;;;;;;0.99;88.28;100697.44;4973145;28;20387;-93
2023/01/26 05:20:48;;;;;;;12.50;5.57;;;;;;;1.12;87.16;100691.69;4974984;28;20479;-95
2023/01/26 05:23:13;;;;;;;7.95;3.17;;;;;;;1.27;85.66;100684.03;4992228;28;20043;-92
2023/01/26 05:25:41;;;;;;;6.45;3.50;;;;;;;1.36;85.32;100674.19;4985938;28;20043;-92
2023/01/26 05:28:07;;;;;;;7.30;4.00;;;;;;;1.23;85.79;100679.94;5005873;28;20026;-93
2023/01/26 05:30:33;;;;;;;9.80;4.68;;;;;;;1.25;85.28;100665.31;4984735;28;20041;-92
2023/01/26 05:33:06;;;;;;;11.00;5.47;;;;;;;1.14;85.76;100659.91;4989116;28;20114;-93
2023/01/26 05:35:32;;;;;;;7.22;3.78;;;;;;;1.11;85.36;100669.47;4993817;28;20461;-92
2023/01/26 05:38:07;;;;;;;;;;;;;;;;;;;;;
2023/01/26 05:40:33;;;;;;;10.27;4.93;;;;;;;1.14;85.18;100667.59;4973136;28;20026;-93
2023/01/26 05:42:59;;;;;;;10.68;5.15;;;;;;;1.00;86.36;100678.56;4980316;28;20118;-93
2023/01/26 05:45:25;;;;;;;9.00;4.63;;;;;;;0.86;87.17;100678.47;4971438;28;20050;-93
2023/01/26 05:47:53;;;;;;;9.43;4.93;;;;;;;0.83;88.17;100681.19;4996928;28;20114;-92
2023/01/26 05:50:18;;;;;;;9.70;5.50;;;;;;;0.75;88.95;100682.47;4971915;28;20126;-93
2023/01/26 05:52:47;;;;;;;13.07;4.88;;;;;;;0.58;89.61;100691.81;4970686;28;20447;-93
2023/01/26 05:55:12;;;;;;;8.27;4.47;;;;;;;0.62;88.89;100688.19;4977506;28;20122;-93
2023/01/26 05:57:38;;;;;;;8.80;4.22;;;;;;;0.71;88.85;100681.78;4974271;28;20110;-93
2023/01/26 06:00:05;;;;;;;9.88;4.65;;;;;;;0.89;88.13;100675.75;4980235;28;20034;-92
2023/01/26 06:02:30;;;;;;;9.00;3.97;;;;;;;0.98;87.29;100674.41;4985634;28;20035;-93
2023/01/26 06:04:56;;;;;;;6.88;3.35;;;;;;;1.05;87.25;100670.63;4975806;28;20061;-92
2023/01/26 06:07:21;;;;;;;8.32;3.55;;;;;;;1.10;87.04;100658.41;4978447;28;20131;-93
2023/01/26 06:09:47;;;;;;;7.28;2.75;;;;;;;1.07;87.20;100665.41;4985838;28;20061;-93
2023/01/26 06:12:18;;;;;;;6.13;2.53;;;;;;;1.12;86.57;100658.31;5004130;28;20025;-93
2023/01/26 06:14:46;;;;;;;8.13;3.05;;;;;;;1.38;84.56;100662.94;5009567;28;20053;-92
2023/01/26 06:17:13;;;;;;;7.47;3.55;;;;;;;1.47;83.65;100659.00;5011103;28;20015;-94
2023/01/26 06:19:39;;;;;;;8.02;4.32;;;;;;;1.45;83.36;100661.66;5014089;28;20694;-94
2023/01/26 06:22:11;;;;;;;11.02;6.03;;;;;;;1.21;84.91;100670.66;4996089;28;20031;-93
2023/01/26 06:24:36;;;;;;;11.48;6.47;;;;;;;0.95;85.98;100675.41;5004397;28;20468;-93
2023/01/26 06:27:05;;;;;;;4.20;2.33;;;;;;;1.34;81.99;100666.56;4984664;28;20106;-93
2023/01/26 06:29:32;;;;;;;5.10;2.00;;;;;;;2.23;77.30;100650.50;4988556;28;20038;-94
2023/01/26 06:31:58;;;;;;;4.93;2.42;;;;;;;2.55;74.47;100647.81;4988600;28;20109;-93
2023/01/26 06:34:23;;;;;;;5.75;2.70;;;;;;;2.70;73.20;100644.34;4978727;28;20117;-92
2023/01/26 06:36:49;;;;;;;6.35;1.65;;;;;;;2.89;72.84;100638.94;4988331;28;20504;-93
2023/01/26 06:39:15;;;;;;;3.85;1.80;;;;;;;3.03;70.64;100635.53;4981875;28;20034;-93
2023/01/26 06:41:42;;;;;;;8.77;2.40;;;;;;;3.21;69.38;100634.44;4978373;28;20126;-93
2023/01/26 06:44:11;;;;;;;4.97;2.30;;;;;;;3.12;70.37;100632.41;4995988;28;20173;-94
2023/01/26 06:46:38;;;;;;;3.85;1.77;;;;;;;3.03;69.83;100632.97;4986464;28;20035;-93
2023/01/26 06:49:04;;;;;;;4.90;2.05;;;;;;;3.11;70.09;100646.19;4976840;28;20093;-93
2023/01/26 06:51:50;;;;;;;6.43;1.88;;;;;;;3.26;67.30;100651.25;4990392;28;20473;-94
2023/01/26 06:54:18;;;;;;;4.30;1.90;;;;;;;3.24;68.42;100639.41;4981588;28;20549;-92
2023/01/26 06:56:44;;;;;;;4.28;1.70;;;;;;;3.21;69.07;100631.84;4987382;28;20058;-93
2023/01/26 06:59:10;;;;;;;4.88;1.92;;;;;;;3.24;67.73;100636.81;4980037;28;20043;-93
2023/01/26 07:01:40;;;;;;;3.80;2.03;;;;;;;3.19;68.43;100633.69;4973982;28;20042;-93
2023/01/26 07:04:05;;;;;;;4.22;2.05;;;;;;;3.32;66.70;100634.59;4975634;28;20038;-92
2023/01/26 07:06:31;;;;;;;3.83;1.63;;;;;;;3.36;67.16;100630.91;4978688;28;20468;-93
2023/01/26 07:08:57;;;;;;;5.30;1.85;;;;;;;3.36;67.15;100630.91;4992985;28;20101;-93
2023/01/26 07:11:24;;;;;;;3.97;2.20;;;;;;;3.37;67.42;100629.97;4990214;28;20407;-94
2023/01/26 07:13:49;;;;;;;7.97;2.38;;;;;;;3.27;68.66;100629.75;4975841;28;20026;-95
2023/01/26 07:16:16;;;;;;;4.30;2.05;;;;;;;3.19;69.17;100633.69;4976509;28;20045;-93
2023/01/26 07:18:42;;;;;;;3.83;2.28;;;;;;;3.39;66.50;100641.00;4991023;28;20039;-94
2023/01/26 07:21:13;;;;;;;8.27;3.35;;;;;;;3.41;67.86;100631.44;4976218;28;20049;-94
2023/01/26 07:23:39;;;;;;;4.63;2.22;;;;;;;3.44;66.77;100649.28;4975332;28;20038;-92
2023/01/26 07:26:05;;;;;;;3.97;2.22;;;;;;;3.53;66.03;100655.63;4977039;28;20030;-93
2023/01/26 07:28:33;;;;;;;4.38;1.83;;;;;;;3.57;66.19;100639.06;4975239;28;20539;-94
2023/01/26 07:31:00;;;;;;;4.80;2.42;;;;;;;3.58;66.15;100641.53;4984276;28;20054;-95
2023/01/26 07:33:36;;;;;;;6.07;3.33;;;;;;;3.58;65.48;100648.44;4984219;28;20034;-93
2023/01/26 07:36:02;;;;;;;6.18;2.40;;;;;;;3.50;66.80;100651.50;4973015;28;20382;-93
2023/01/26 07:38:28;;;;;;;5.70;2.78;;;;;;;3.47;67.44;100650.84;4998923;28;20052;-93
2023/01/26 07:40:54;;;;;;;5.72;2.70;;;;;;;3.54;66.80;100637.50;4990594;28;20035;-93
2023/01/26 07:43:20;;;;;;;3.67;1.75;;;;;;;3.60;67.44;100639.69;4976545;28;20038;-92
2023/01/26 07:45:50;;;;;;;6.93;2.92;;;;;;;3.60;68.53;100650.00;4974442;28;20031;-94
2023/01/26 07:48:16;;;;;;;5.25;2.53;;;;;;;3.58;69.11;100645.88;4974060;28;20037;-93
2023/01/26 07:50:41;;;;;;;6.45;3.53;;;;;;;3.53;70.02;100651.31;4973528;28;20327;-92
2023/01/26 07:53:08;;;;;;;10.90;5.70;;;;;;;3.52;70.95;100652.22;4979815;28;20030;-93
2023/01/26 07:55:34;;;;;;;9.02;4.28;;;;;;;3.48;71.12;100662.81;4966321;28;20085;-92
2023/01/26 07:57:59;;;;;;;14.52;4.72;;;;;;;3.48;70.53;100650.75;4974465;28;20029;-92
2023/01/26 08:00:25;;;;;;;7.63;3.13;;;;;;;3.65;67.94;100645.38;4976162;28;20050;-94
2023/01/26 08:02:51;;;;;;;5.00;2.33;;;;;;;3.79;66.98;100641.91;4978119;28;20108;-93
2023/01/26 08:05:16;;;;;;;6.85;3.17;;;;;;;3.92;65.85;100647.13;4977592;28;20035;-93
2023/01/26 08:07:42;;;;;;;6.00;2.22;;;;;;;3.96;64.96;100636.53;4997955;28;20380;-93
2023/01/26 08:10:09;;;;;;;6.20;2.67;;;;;;;4.03;64.90;100643.88;4983144;28;20038;-93
2023/01/26 08:12:35;;;;;;;7.07;3.03;;;;;;;4.03;66.90;100636.97;4991369;28;20038;-92
2023/01/26 08:15:01;;;;;;;7.93;3.35;;;;;;;4.00;68.18;100642.31;4980374;28;20023;-93
2023/01/26 08:17:28;;;;;;;4.60;2.67;;;;;;;3.94;69.63;100653.03;4999992;28;20030;-93
2023/01/26 08:19:58;;;;;;;6.43;3.47;;;;;;;3.89;70.30;100653.31;4997717;28;20061;-93
2023/01/26 08:22:26;;;;;;;8.20;4.05;;;;;;;3.89;70.81;100652.47;4974166;28;20124;-92
2023/01/26 08:24:52;;;;;;;10.73;4.55;;;;;;;3.88;71.46;100654.22;4976851;28;20035;-93
2023/01/26 08:27:17;;;;;;;8.45;4.35;;;;;;;3.91;71.79;100655.78;4978879;28;20039;-92
2023/01/26 08:29:43;;;;;;;9.65;4.60;;;;;;;3.94;72.21;100653.03;4978382;28;20027;-94
2023/01/26 08:32:08;;;;;;;5.32;3.53;;;;;;;3.97;72.22;100652.81;4976363;28;20031;-93
2023/01/26 08:34:37;;;;;;;5.47;3.40;;;;;;;4.00;72.57;100653.47;4992804;28;20046;-93
2023/01/26 08:37:02;;;;;;;8.82;3.47;;;;;;;4.05;72.82;100653.16;4985736;28;20038;-93
2023/01/26 08:39:28;;;;;;;5.30;2.40;;;;;;;4.12;72.21;100657.00;4984465;28;20041;-94
2023/01/26 08:41:54;;;;;;;7.30;3.80;;;;;;;4.19;72.36;100663.44;4990778;28;20138;-94
2023/01/26 08:44:19;;;;;;;6.00;3.17;;;;;;;4.20;72.46;100665.09;4983285;28;20038;-93
2023/01/26 08:46:45;;;;;;;5.95;3.40;;;;;;;4.15;71.90;100659.41;4970879;28;20335;-93
2023/01/26 08:49:11;;;;;;;6.22;3.60;;;;;;;4.18;72.40;100659.19;4979118;28;20037;-93
2023/01/26 08:51:36;;;;;;;5.55;3.35;;;;;;;4.25;72.48;100665.59;4994400;28;20446;-93
2023/01/26 08:54:06;;;;;;;14.32;7.25;;;;;;;4.30;72.23;100666.13;4978335;28;20498;-94
2023/01/26 08:56:33;;;;;;;8.68;4.25;;;;;;;4.36;71.64;100659.75;4992969;28;20034;-93
2023/01/26 08:58:58;;;;;;;7.75;3.67;;;;;;;4.45;70.84;100658.31;4994087;28;20074;-93
2023/01/26 09:01:24;;;;;;;5.25;3.28;;;;;;;4.53;71.23;100662.03;4990429;28;20085;-93
2023/01/26 09:03:54;;;;;;;6.57;3.58;;;;;;;4.52;71.42;100655.22;4976813;28;20031;-93
2023/01/26 09:06:31;;;;;;;7.00;4.53;;;;;;;4.53;71.02;100656.06;4972385;28;20117;-93
2023/01/26 09:08:57;;;;;;;5.43;3.00;;;;;;;4.55;71.17;100664.53;4995815;28;20038;-93
2023/01/26 09:11:23;;;;;;;7.63;3.55;;;;;;;4.56;71.44;100651.53;4987416;28;20037;-93
2023/01/26 09:13:55;;;;;;;6.97;2.88;;;;;;;4.61;70.48;100664.13;4991812;28;20031;-93
2023/01/26 09:16:24;;;;;;;4.85;2.47;;;;;;;4.58;70.24;100660.00;4987087;28;20043;-93
2023/01/26 09:18:51;;;;;;;6.68;3.17;;;;;;;4.53;70.42;100653.47;4971507;28;20031;-94
2023/01/26 09:21:18;;;;;;;7.78;3.47;;;;;;;4.55;69.25;100660.19;4977402;28;20355;-93
2023/01/26 09:23:43;;;;;;;7.05;2.72;;;;;;;4.63;69.28;100657.94;4973297;28;20034;-93
2023/01/26 09:26:09;;;;;;;6.28;2.72;;;;;;;4.68;69.07;100660.22;4981139;28;20030;-93
2023/01/26 09:28:38;;;;;;;6.75;3.13;;;;;;;4.63;69.33;100667.44;4973687;28;20039;-93
2023/01/26 09:31:05;;;;;;;5.32;2.75;;;;;;;4.52;69.26;100654.41;4987162;28;20058;-93
2023/01/26 09:33:32;;;;;;;4.25;2.40;;;;;;;4.50;68.99;100659.66;4973989;28;20045;-91
2023/01/26 09:36:24;;;;;;;5.50;2.42;;;;;;;4.58;66.78;100659.16;4978149;28;20110;-94
2023/01/26 09:38:51;;;;;;;4.50;2.35;;;;;;;4.51;68.14;100671.63;4978847;28;20041;-94
2023/01/26 09:41:35;;;;;;;7.40;3.10;;;;;;;4.37;64.11;100670.88;4973785;28;20516;-94
2023/01/26 09:44:09;;;;;;;4.95;2.70;;;;;;;4.33;64.84;100645.28;4989194;28;20055;-89
2023/01/26 09:47:01;;;;;;;8.07;2.60;;;;;;;4.40;62.89;100656.03;4983849;28;20388;-89
2023/01/26 09:49:50;;;;;;;7.50;2.78;;;;;;;4.48;61.50;100650.38;4990394;28;20129;-89
2023/01/26 09:52:19;;;;;;;5.15;2.15;;;;;;;4.41;63.64;100641.38;4974694;28;20046;-89
2023/01/26 09:54:51;;;;;;;4.10;2.25;;;;;;;4.61;61.33;100657.22;4979224;28;20031;-90
2023/01/26 09:57:23;;;;;;;3.53;2.33;;;;;;;4.65;61.40;100653.50;4984431;28;20505;-90
2023/01/26 10:00:08;;;;;;;5.25;2.20;;;;;;;4.61;61.46;100652.06;4971410;28;20070;-90
2023/01/26 10:03:04;;;;;;;5.55;2.90;;;;;;;4.76;59.72;100650.19;4984766;28;20046;-90
2023/01/26 10:05:50;;;;;;;4.78;2.90;;;;;;;4.67;62.35;100643.06;4989028;28;20042;-90
2023/01/26 10:08:18;;;;;;;6.68;2.42;;;;;;;4.58;61.41;100649.66;4972517;28;20578;-89
2023/01/26 10:10:56;;;;;;;4.03;2.25;;;;;;;4.49;60.14;100649.44;4987908;28;20038;-89
2023/01/26 10:13:22;;;;;;;4.50;2.42;;;;;;;4.42;59.90;100643.84;4979638;28;20516;-89
2023/01/26 10:15:56;;;;;;;12.15;5.00;;;;;;;4.42;59.80;100649.00;5001351;28;20057;-89
2023/01/26 10:18:31;;;;;;;7.13;4.00;;;;;;;4.42;59.75;100651.59;4987945;28;20515;-89
2023/01/26 10:21:00;;;;;;;5.65;2.80;;;;;;;4.39;60.71;100632.91;4983338;28;20105;-89
2023/01/26 10:23:29;;;;;;;5.68;3.15;;;;;;;4.40;60.87;100634.56;4978130;28;20110;-89
2023/01/26 10:26:09;;;;;;;5.60;2.70;;;;;;;4.51;59.54;100629.53;4990655;28;20031;-89
2023/01/26 10:28:35;;;;;;;5.18;2.58;;;;;;;4.50;59.04;100633.88;4983357;28;20089;-90
2023/01/26 10:31:04;;;;;;;5.07;2.95;;;;;;;4.51;59.45;100632.09;4974162;28;20474;-89
2023/01/26 10:33:32;;;;;;;5.47;2.60;;;;;;;4.49;59.92;100623.66;4973964;28;20031;-89
2023/01/26 10:35:58;;;;;;;5.38;2.47;;;;;;;4.50;59.33;100625.28;4978432;28;20034;-89
2023/01/26 10:38:33;;;;;;;6.30;2.53;;;;;;;4.58;58.54;100612.72;4997221;28;20113;-90
2023/01/26 10:41:01;;;;;;;4.63;2.83;;;;;;;4.66;59.25;100610.44;4976635;28;20054;-89
2023/01/26 10:43:27;;;;;;;5.75;2.80;;;;;;;4.72;59.52;100606.63;4990545;28;20054;-91
2023/01/26 10:45:52;;;;;;;5.32;1.98;;;;;;;4.84;58.83;100609.19;4992661;28;20039;-90
2023/01/26 10:48:22;;;;;;;9.00;2.75;;;;;;;4.76;59.37;100598.56;4997325;28;20042;-91
2023/01/26 10:50:49;;;;;;;6.60;2.80;;;;;;;4.79;58.76;100593.19;4988130;28;20033;-90
2023/01/26 10:53:23;;;;;;;5.65;2.65;;;;;;;4.85;57.99;100597.94;4984173;28;20034;-90
2023/01/26 10:56:04;;;;;;;4.50;2.72;;;;;;;5.00;58.21;100599.47;4982400;28;20470;-91
2023/01/26 10:58:56;;;;;;;10.98;2.78;;;;;;;5.06;58.06;100600.81;4996190;28;20129;-91
2023/01/26 11:01:26;;;;;;;6.03;2.85;;;;;;;4.93;58.64;100593.06;4976679;28;20045;-90
2023/01/26 11:04:03;;;;;;;5.68;2.90;;;;;;;4.88;58.49;100589.97;4974607;28;20085;-90
2023/01/26 11:06:30;;;;;;;5.13;2.47;;;;;;;4.89;59.96;100585.63;4984705;28;20117;-91
2023/01/26 11:09:08;;;;;;;5.45;2.60;;;;;;;4.99;58.46;100577.16;4982799;28;20041;-92
2023/01/26 11:11:34;;;;;;;7.60;3.28;;;;;;;5.12;58.53;100576.31;4983126;28;20046;-90
2023/01/26 11:14:20;;;;;;;4.85;2.67;;;;;;;5.21;58.04;100571.31;4985340;28;20030;-90
2023/01/26 11:16:55;;;;;;;4.45;2.45;;;;;;;5.27;59.21;100576.03;4974793;28;20054;-91
2023/01/26 11:20:00;;;;;;;4.68;2.58;;;;;;;5.08;57.96;100549.06;5000082;28;20038;-91
2023/01/26 11:22:49;;;;;;;7.22;2.47;;;;;;;5.11;56.93;100548.84;4984493;28;20121;-90
2023/01/26 11:25:32;;;;;;;5.10;2.55;;;;;;;5.27;56.75;100557.97;4990518;28;20502;-90
2023/01/26 11:28:41;;;;;;;3.45;1.95;;;;;;;5.15;56.07;100558.03;4995493;28;20034;-91
2023/01/26 11:31:09;;;;;;;4.85;2.65;;;;;;;4.99;58.44;100546.16;4992336;28;20063;-91
2023/01/26 11:33:54;;;;;;;5.45;2.70;;;;;;;5.15;56.93;100552.84;4977756;28;20553;-90
2023/01/26 11:37:01;;;;;;;4.93;2.70;;;;;;;5.05;56.56;100539.75;4995633;28;20441;-90
2023/01/26 11:39:52;;;;;;;6.73;2.77;;;;;;;5.01;56.97;100538.31;4977221;28;20164;-91
2023/01/26 11:42:39;;;;;;;5.35;2.65;;;;;;;5.14;57.59;100533.94;4993562;28;20080;-91
2023/01/26 11:45:27;;;;;;;4.40;2.17;;;;;;;5.14;56.42;100536.53;4984754;28;20547;-90
2023/01/26 11:48:18;;;;;;;6.97;2.22;;;;;;;5.11;55.15;100520.44;4989644;28;20523;-91
2023/01/26 11:50:52;;;;;;;5.25;2.67;;;;;;;5.02;56.20;100498.66;4997275;28;20031;-91
2023/01/26 11:53:44;;;;;;;8.00;2.08;;;;;;;5.12;55.08;100504.81;4973856;28;20042;-91
2023/01/26 11:56:23;;;;;;;3.92;1.92;;;;;;;5.11;55.86;100503.19;4987608;28;20061;-91
2023/01/26 11:58:57;;;;;;;6.50;3.42;;;;;;;5.14;55.34;100513.28;4986733;28;20070;-90
2023/01/26 12:01:27;;;;;;;5.22;2.50;;;;;;;5.13;55.67;100503.06;4988608;28;20035;-91
2023/01/26 12:03:54;;;;;;;4.03;2.25;;;;;;;5.12;55.32;100494.50;4987764;28;20102;-90
2023/01/26 12:06:35;;;;;;;5.28;2.28;;;;;;;5.02;56.07;100493.50;4976676;28;20359;-90
2023/01/26 12:09:03;;;;;;;7.20;2.60;;;;;;;5.00;57.71;100485.84;4971015;28;20053;-91
2023/01/26 12:11:34;;;;;;;5.95;2.85;;;;;;;5.21;55.57;100477.50;4973799;28;20039;-90
2023/01/26 12:14:23;;;;;;;4.75;2.45;;;;;;;5.26;56.90;100483.97;4975520;28;20033;-91
2023/01/26 12:17:12;;;;;;;7.20;2.63;;;;;;;5.19;55.88;100489.72;4973740;28;20037;-91
2023/01/26 12:19:46;;;;;;;4.72;2.17;;;;;;;5.15;55.86;100476.19;4971261;28;20039;-90
2023/01/26 12:22:30;;;;;;;4.25;2.38;;;;;;;5.11;55.92;100471.34;4971394;28;20026;-91
2023/01/26 12:25:20;;;;;;;5.32;3.00;;;;;;;5.06;57.59;100460.53;4987742;28;20116;-92
2023/01/26 12:28:03;;;;;;;5.82;2.35;;;;;;;5.19;55.12;100454.38;4978228;28;20474;-91
2023/01/26 12:30:40;;;;;;;3.53;1.75;;;;;;;5.19;56.10;100454.38;4983886;28;20386;-91
2023/01/26 12:33:09;;;;;;;6.40;2.80;;;;;;;5.21;56.06;100446.50;4986894;28;20501;-92